Date,TemperatureHighF,TemperatureAvgF,TemperatureLowF,DewpointHighF,DewpointAvgF,DewpointLowF,HumidityHigh,HumidityAvg,HumidityLow,PressureMaxIn,PressureMinIn,WindSpeedMaxMPH,WindSpeedAvgMPH,GustSpeedMaxMPH,PrecipitationSumIn
2013-1-1,39.0,35.7,26.0,27.0,21.1,10.0,64,55,45,29.97,29.80,11,7,22,0.00
2013-1-2,33.0,26.9,21.0,16.0,11.0,8.0,63,52,43,30.12,29.97,14,6,22,0.00
2013-1-3,33.0,27.4,17.0,16.0,12.9,7.0,70,56,42,30.18,30.03,10,3,15,0.00
2013-1-4,38.0,33.9,30.0,22.0,19.4,17.0,62,55,44,30.03,29.91,14,6,21,0.00
2013-1-5,42.0,34.7,27.0,22.0,19.4,16.0,81,55,39,30.24,29.97,12,4,28,0.00
2013-1-6,46.0,37.4,29.0,30.0,25.9,24.0,84,65,42,30.18,29.94,8,3,14,0.00
2013-1-7,44.0,35.5,26.0,28.0,23.0,17.0,88,63,35,30.36,30.00,9,3,21,0.00
2013-1-8,48.0,34.8,23.0,28.0,24.5,20.0,93,70,44,30.39,30.33,12,2,14,0.00
2013-1-9,47.0,35.2,26.0,35.0,28.9,23.0,94,81,59,30.36,30.12,8,2,17,0.00
2013-1-10,47.0,38.6,30.0,24.0,22.3,19.0,77,54,33,30.50,30.45,10,2,19,0.00
2013-1-11,41.0,35.5,29.0,37.0,30.2,24.0,94,82,62,30.50,30.09,5,1,8,0.00
2013-1-12,45.0,43.3,40.0,43.0,41.6,38.0,94,93,91,30.15,30.06,5,2,10,0.00
2013-1-13,48.0,44.5,42.0,45.0,43.1,41.0,95,94,89,30.12,30.00,5,1,9,0.00
2013-1-14,55.0,48.0,37.0,51.0,40.5,29.0,95,78,45,30.27,29.88,9,3,21,0.00
2013-1-15,38.0,36.3,34.0,33.0,26.4,23.0,89,68,56,30.33,30.21,9,3,13,0.00
2013-1-16,34.0,32.4,31.0,33.0,30.8,27.0,94,93,74,30.21,29.80,8,1,11,0.00
2013-1-17,42.0,37.8,34.0,33.0,27.0,21.0,94,66,50,30.06,29.88,13,3,20,0.00
2013-1-18,33.0,27.3,24.0,21.0,8.5,2.0,62,47,32,30.45,30.00,12,6,20,0.00
2013-1-19,50.0,39.0,28.0,26.0,20.0,10.0,63,47,34,30.36,29.91,16,7,25,0.00
2013-1-20,52.0,41.9,30.0,28.0,20.8,8.0,72,45,17,30.00,29.68,24,8,38,0.00
2013-1-21,30.0,27.8,22.0,16.0,10.3,6.0,64,49,37,30.06,29.83,13,3,25,0.00
2013-1-22,27.0,19.8,13.0,16.0,-1.2,-12.0,66,42,26,30.18,29.80,18,10,29,0.00
2013-1-23,19.0,14.2,10.0,-1.0,-6.4,-10.0,65,43,29,30.24,30.12,11,6,20,0.00
2013-1-24,22.0,15.5,9.0,3.0,-2.4,-7.0,83,52,28,30.36,30.12,19,7,29,0.00
2013-1-25,23.0,17.4,12.0,15.0,2.8,-4.0,89,59,35,30.39,30.06,8,3,23,0.00
2013-1-26,28.0,18.1,7.0,9.0,4.6,1.0,91,63,33,30.33,30.03,14,5,23,0.00
2013-1-27,33.0,24.9,14.0,10.0,7.0,4.0,78,50,31,30.50,30.36,11,4,17,0.00
2013-1-28,34.0,28.9,22.0,32.0,23.8,11.0,94,83,66,30.47,29.97,11,2,14,0.00
2013-1-29,47.0,38.1,34.0,38.0,34.4,32.0,95,88,70,30.12,29.97,6,1,11,0.00
2013-1-30,55.0,45.7,37.0,53.0,43.7,35.0,96,93,85,30.06,29.38,7,1,16,0.00
2013-1-31,59.0,40.1,30.0,55.0,17.6,8.0,88,41,30,29.74,29.18,24,13,37,0.00
2013-2-1,30.0,27.6,24.0,13.0,8.8,4.0,65,46,34,30.18,29.77,17,6,28,0.00
2013-2-2,29.0,23.7,18.0,19.0,7.5,1.0,89,54,31,30.27,30.06,11,4,19,0.00
2013-2-3,31.0,25.0,18.0,20.0,16.7,14.0,93,75,54,30.03,29.77,6,2,12,0.00
2013-2-4,30.0,26.7,23.0,18.0,8.2,4.0,77,48,34,29.94,29.80,18,6,24,0.00
2013-2-5,30.0,27.7,25.0,25.0,20.8,10.0,88,78,49,29.94,29.88,6,2,9,0.00
2013-2-6,38.0,31.8,24.0,26.0,18.3,0.0,95,63,29,30.33,29.88,12,4,20,0.00
2013-2-7,31.0,26.1,20.0,17.0,7.4,0.0,64,47,30,30.50,30.33,9,2,10,0.00
2013-2-8,34.0,31.3,27.0,31.0,27.5,20.0,97,87,69,30.33,29.62,15,7,29,0.00
2013-2-9,32.0,27.2,22.0,26.0,13.8,1.0,97,64,29,30.30,29.74,16,9,29,0.00
2013-2-10,39.0,23.9,9.0,17.0,7.3,1.0,83,56,25,30.45,30.30,5,1,12,0.00
2013-2-11,40.0,33.0,25.0,39.0,29.8,18.0,95,89,77,30.30,29.65,3,0,7,0.00
2013-2-12,44.0,39.5,32.0,36.0,25.2,22.0,96,58,42,29.94,29.68,16,6,26,0.00
2013-2-13,44.0,34.6,22.0,31.0,23.0,18.0,93,66,40,29.91,29.68,5,1,12,0.00
2013-2-14,46.0,36.7,28.0,33.0,27.2,22.0,95,72,40,29.97,29.68,7,1,11,0.00
2013-2-15,56.0,40.6,29.0,34.0,29.8,26.0,92,69,34,29.97,29.88,9,3,18,0.00
2013-2-16,37.0,34.2,31.0,33.0,24.0,13.0,91,67,47,29.94,29.74,10,5,19,0.00
2013-2-17,30.0,25.5,17.0,12.0,2.8,-3.0,47,38,27,29.97,29.65,21,12,38,0.00
2013-2-18,35.0,25.2,17.0,12.0,3.4,-1.0,51,41,26,30.21,29.97,16,7,25,0.00
2013-2-19,47.0,36.1,24.0,41.0,26.2,11.0,93,70,42,30.18,29.65,14,3,21,0.00
2013-2-20,38.0,30.4,25.0,21.0,12.1,7.0,56,47,38,29.94,29.68,18,11,31,0.00
2013-2-21,32.0,27.3,24.0,14.0,10.3,8.0,60,50,42,30.27,29.94,20,10,31,0.00
2013-2-22,37.0,31.1,24.0,27.0,19.1,12.0,74,62,48,30.39,30.24,10,4,18,0.00
2013-2-23,40.0,36.2,33.0,38.0,33.9,28.0,94,91,74,30.24,29.83,11,2,16,0.00
2013-2-24,44.0,38.1,33.0,37.0,30.2,21.0,94,75,51,29.94,29.74,13,5,25,0.00
2013-2-25,43.0,37.3,26.0,28.0,24.6,21.0,84,61,44,30.21,29.97,7,2,16,0.00
2013-2-26,42.0,36.6,29.0,33.0,29.3,26.0,91,76,61,30.27,29.94,8,3,31,0.00
2013-2-27,46.0,42.3,36.0,43.0,38.4,33.0,92,86,72,29.88,29.47,19,7,37,0.00
2013-2-28,48.0,41.6,37.0,39.0,32.5,28.0,94,72,47,29.59,29.53,7,2,16,0.00
2013-3-1,44.0,38.7,30.0,30.0,27.4,24.0,88,64,48,29.77,29.59,12,5,19,0.00
2013-3-2,38.0,35.4,31.0,27.0,23.1,21.0,81,61,51,29.77,29.68,10,7,19,0.00
2013-3-3,40.0,32.2,29.0,20.0,17.2,15.0,66,54,40,29.74,29.65,13,8,23,0.00
2013-3-4,40.0,33.1,27.0,19.0,17.3,13.0,65,53,41,29.88,29.74,14,8,29,0.00
2013-3-5,47.0,38.7,31.0,25.0,21.8,19.0,64,52,37,30.00,29.88,11,5,22,0.00
2013-3-6,42.0,39.4,37.0,34.0,29.0,25.0,81,66,57,29.97,29.85,20,9,37,0.00
2013-3-7,39.0,35.6,33.0,32.0,28.5,25.0,94,76,58,30.06,29.91,21,10,29,0.00
2013-3-8,42.0,35.5,31.0,33.0,29.6,26.0,96,81,53,30.18,30.00,13,5,25,0.00
2013-3-9,55.0,43.9,34.0,25.0,19.5,14.0,60,40,20,30.27,30.18,14,6,19,0.00
2013-3-10,50.0,39.1,27.0,35.0,30.5,25.0,93,73,53,30.36,30.27,7,2,13,0.00
2013-3-11,54.0,45.7,37.0,46.0,39.2,33.0,86,79,61,30.30,30.06,9,3,19,0.00
2013-3-12,54.0,50.6,44.0,52.0,45.8,36.0,93,84,69,30.06,29.65,13,5,21,0.00
2013-3-13,49.0,42.1,33.0,35.0,27.8,18.0,91,60,29,29.85,29.77,13,5,20,0.00
2013-3-14,40.0,34.4,29.0,27.0,11.0,3.0,63,39,23,29.94,29.83,22,10,34,0.00
2013-3-15,45.0,36.8,30.0,28.0,16.4,6.0,56,43,32,29.94,29.71,15,7,29,0.00
2013-3-16,41.0,34.7,31.0,30.0,23.9,18.0,92,67,48,29.88,29.77,6,2,18,0.00
2013-3-17,37.0,33.0,28.0,29.0,16.7,10.0,92,54,33,30.27,29.88,14,5,20,0.00
2013-3-18,34.0,30.0,26.0,30.0,15.1,5.0,96,57,38,30.39,30.03,12,4,16,0.00
2013-3-19,44.0,36.3,32.0,33.0,32.1,29.0,97,85,63,30.00,29.68,12,6,25,0.00
2013-3-20,43.0,37.1,31.0,25.0,17.8,13.0,61,46,29,29.85,29.77,17,6,26,0.00
2013-3-21,39.0,34.5,31.0,26.0,14.1,8.0,77,44,27,29.83,29.62,11,6,20,0.00
2013-3-22,40.0,34.1,28.0,19.0,15.3,12.0,59,47,36,29.85,29.71,15,6,24,0.00
2013-3-23,44.0,38.5,32.0,22.0,17.4,15.0,59,43,31,29.91,29.80,18,8,27,0.00
2013-3-24,46.0,38.5,28.0,23.0,19.2,17.0,67,47,32,29.91,29.71,12,4,19,0.00
2013-3-25,42.0,38.9,37.0,34.0,26.5,21.0,87,62,42,29.68,29.44,9,3,26,0.00
2013-3-26,50.0,41.4,32.0,31.0,26.4,21.0,90,58,33,29.83,29.56,11,4,25,0.00
2013-3-27,51.0,41.8,32.0,30.0,24.0,19.0,73,51,29,29.94,29.83,13,4,27,0.00
2013-3-28,49.0,42.8,31.0,31.0,28.1,26.0,83,57,44,30.09,29.94,16,5,19,0.00
2013-3-29,53.0,46.0,35.0,29.0,26.3,22.0,73,47,31,30.12,30.03,10,5,23,0.00
2013-3-30,58.0,45.4,30.0,30.0,22.2,-99.9,88,47,19,30.15,30.03,8,3,18,0.00
2013-3-31,55.0,43.5,30.0,43.0,31.7,23.0,92,66,29,30.09,29.68,12,3,24,0.00
2013-4-1,61.0,46.9,38.0,45.0,35.6,10.0,95,69,29,29.88,29.62,17,6,33,0.00
2013-4-2,43.0,37.0,30.0,16.0,11.0,7.0,52,35,23,30.06,29.88,18,8,27,0.00
2013-4-3,45.0,38.0,33.0,13.0,10.3,8.0,44,32,22,30.27,30.06,15,9,29,0.00
2013-4-4,53.0,41.0,28.0,27.0,17.8,12.0,62,41,25,30.36,30.09,11,4,22,0.00
2013-4-5,61.0,48.6,40.0,28.0,21.4,14.0,61,37,18,30.06,29.71,15,6,27,0.00
2013-4-6,54.0,42.6,35.0,27.0,13.3,3.0,60,33,13,30.30,29.97,12,6,24,0.00
2013-4-7,55.0,47.2,38.0,42.0,33.1,24.0,72,59,38,30.27,29.97,13,4,26,0.00
2013-4-8,75.0,57.8,42.0,43.0,39.8,33.0,91,57,23,30.06,29.97,11,3,18,0.00
2013-4-9,80.0,64.5,49.0,50.0,42.2,33.0,88,51,19,29.97,29.88,14,3,29,0.00
2013-4-10,72.0,61.6,53.0,55.0,48.4,40.0,92,64,42,29.94,29.80,9,3,29,0.00
2013-4-11,61.0,54.9,47.0,56.0,46.2,38.0,94,74,49,30.03,29.77,10,5,17,0.00
2013-4-12,47.0,42.9,40.0,40.0,37.2,34.0,92,81,65,30.03,29.71,19,7,30,0.00
2013-4-13,58.0,49.0,40.0,39.0,34.2,29.0,90,60,35,29.94,29.74,10,4,21,0.00
2013-4-14,55.0,51.2,47.0,37.0,29.3,23.0,62,44,29,30.18,29.94,19,5,24,0.00
2013-4-15,58.0,48.8,40.0,34.0,28.0,23.0,70,46,33,30.36,30.21,9,3,17,0.00
2013-4-16,64.0,55.3,46.0,52.0,44.7,35.0,77,68,60,30.36,30.09,12,4,20,0.00
2013-4-17,68.0,61.4,53.0,54.0,41.2,32.0,83,51,26,30.27,30.09,11,4,16,0.00
2013-4-18,60.0,53.4,45.0,53.0,41.6,31.0,88,66,34,30.33,30.09,16,5,19,0.00
2013-4-19,73.0,64.4,56.0,61.0,57.4,53.0,92,79,62,30.09,29.62,12,5,21,0.00
2013-4-20,63.0,53.6,48.0,60.0,33.0,22.0,92,50,26,30.24,29.65,18,8,28,0.00
2013-4-21,53.0,44.4,37.0,25.0,19.7,16.0,52,38,24,30.59,30.30,13,5,20,0.00
2013-4-22,53.0,46.3,38.0,34.0,29.4,23.0,75,53,30,30.65,30.50,13,5,22,0.00
2013-4-23,51.0,45.0,40.0,40.0,35.4,30.0,86,69,63,30.47,30.09,15,6,21,0.00
2013-4-24,70.0,53.3,36.0,50.0,42.7,34.0,93,70,43,30.09,29.83,14,2,17,0.00
2013-4-25,65.0,56.0,46.0,51.0,29.2,18.0,77,39,17,30.21,29.83,15,6,24,0.00
2013-4-26,65.0,54.8,38.0,39.0,29.8,19.0,92,45,17,30.39,30.27,9,3,15,0.00
2013-4-27,68.0,56.8,40.0,32.0,26.4,-99.9,68,35,19,30.42,30.27,7,3,15,0.00
2013-4-28,68.0,56.5,42.0,41.0,33.0,26.0,86,45,24,30.30,30.18,9,2,19,0.00
2013-4-29,57.0,54.9,53.0,48.0,44.7,38.0,82,68,52,30.24,30.18,6,2,14,0.00
2013-4-30,66.0,57.6,49.0,46.0,36.1,23.0,77,49,21,30.33,30.18,8,2,17,0.00
2013-5-1,68.0,54.8,39.0,42.0,36.4,24.0,90,55,23,30.47,30.33,8,2,18,0.00
2013-5-2,72.0,55.7,41.0,47.0,40.0,33.0,93,61,26,30.45,30.30,7,2,10,0.00
2013-5-3,65.0,56.3,48.0,43.0,36.8,31.0,80,50,29,30.45,30.36,9,4,17,0.00
2013-5-4,69.0,54.7,42.0,45.0,40.8,37.0,93,63,34,30.36,30.24,11,3,18,0.00
2013-5-5,64.0,52.0,41.0,42.0,38.2,33.0,91,62,34,30.30,30.21,10,3,16,0.00
2013-5-6,70.0,55.5,43.0,52.0,45.9,40.0,91,72,48,30.27,30.15,9,2,15,0.00
2013-5-7,73.0,60.3,48.0,58.0,51.6,46.0,94,74,56,30.15,30.09,7,2,15,0.00
2013-5-8,63.0,60.1,55.0,60.0,56.4,51.0,94,88,76,30.09,29.97,7,2,14,0.00
2013-5-9,68.0,58.4,52.0,57.0,54.4,50.0,94,87,64,30.00,29.88,5,1,6,0.00
2013-5-10,80.0,65.1,50.0,57.0,51.3,-99.9,94,67,32,29.97,29.88,7,2,11,0.00
2013-5-11,70.0,63.6,61.0,63.0,59.0,-99.9,94,88,76,29.88,29.71,7,2,0,0.00
2013-5-12,69.0,60.9,53.0,58.0,39.8,24.0,94,52,23,29.91,29.65,22,6,0,0.00
2013-5-13,54.0,49.3,41.0,33.0,27.6,22.0,67,44,28,30.09,29.91,10,4,20,0.00
2013-5-14,61.0,50.0,35.0,36.0,28.1,18.0,91,49,18,30.12,30.00,12,3,14,0.00
2013-5-15,69.0,56.3,40.0,56.0,45.5,36.0,91,70,43,30.03,29.65,8,2,17,0.00
2013-5-16,81.0,59.1,52.0,55.0,32.3,-99.9,94,64,31,29.80,29.71,9,1,13,0.00
2013-5-17,72.0,61.9,55.0,52.0,33.3,-99.9,81,46,29,30.18,29.83,9,3,17,0.00
2013-5-18,66.0,58.2,48.0,54.0,48.6,42.0,93,73,42,30.30,30.18,6,1,14,0.00
2013-5-19,58.0,57.2,56.0,56.0,54.3,51.0,94,90,77,30.30,30.18,5,2,11,0.00
2013-5-20,81.0,67.7,57.0,65.0,60.2,55.0,95,79,54,30.15,29.94,9,2,12,0.00
2013-5-21,88.0,76.8,61.0,67.0,64.7,60.0,94,69,45,29.97,29.83,9,3,17,0.00
2013-5-22,81.0,70.2,59.0,69.0,63.2,56.0,90,79,65,29.91,29.83,9,3,13,0.00
2013-5-23,79.0,70.7,65.0,71.0,66.0,63.0,94,85,65,29.88,29.77,11,3,17,0.00
2013-5-24,65.0,55.6,46.0,63.0,51.8,40.0,94,87,76,29.91,29.68,15,5,20,0.00
2013-5-25,53.0,49.3,45.0,44.0,41.3,37.0,90,75,57,29.97,29.88,16,7,34,0.00
2013-5-26,66.0,56.1,48.0,39.0,36.1,31.0,69,50,29,30.18,29.91,20,7,28,0.00
2013-5-27,76.0,60.5,41.0,42.0,37.1,32.0,90,48,20,30.24,30.09,7,2,18,0.00
2013-5-28,69.0,57.0,49.0,56.0,50.8,43.0,94,81,39,30.21,30.12,5,1,11,0.00
2013-5-29,86.0,69.5,58.0,65.0,60.4,56.0,95,76,47,30.12,30.00,10,2,16,0.00
2013-5-30,91.0,80.8,66.0,67.0,62.0,55.0,91,57,29,30.12,30.06,6,2,13,0.00
2013-5-31,93.0,81.1,66.0,68.0,62.5,56.0,92,57,32,30.12,29.97,11,2,16,0.00
2013-6-1,91.0,81.1,67.0,67.0,62.2,-99.9,88,58,39,30.00,29.88,8,4,18,0.00
2013-6-2,88.0,80.5,73.0,69.0,65.6,63.0,78,62,46,29.91,29.77,14,4,23,0.00
2013-6-3,78.0,71.5,67.0,68.0,63.8,47.0,92,78,44,29.85,29.80,6,2,22,0.00
2013-6-4,75.0,65.9,57.0,47.0,41.3,38.0,57,42,27,30.09,29.88,19,6,21,0.00
2013-6-5,75.0,63.4,51.0,48.0,44.1,40.0,76,52,32,30.21,30.09,9,2,14,0.00
2013-6-6,72.0,62.7,53.0,58.0,52.7,44.0,93,73,41,30.12,30.03,9,3,19,0.00
2013-6-7,61.0,60.1,59.0,59.0,57.8,56.0,94,92,91,30.00,29.65,11,4,17,0.00
2013-6-8,77.0,67.0,57.0,61.0,58.3,54.0,94,76,55,30.03,29.59,11,4,19,0.00
2013-6-9,81.0,70.2,58.0,61.0,56.8,52.0,94,66,37,30.18,30.03,5,1,15,0.00
2013-6-10,70.0,64.9,61.0,65.0,61.5,59.0,93,89,80,30.15,29.85,10,2,20,0.00
2013-6-11,80.0,70.5,62.0,67.0,62.5,58.0,94,78,55,29.83,29.62,13,4,25,0.00
2013-6-12,75.0,69.0,60.0,58.0,52.7,49.0,82,57,40,29.83,29.71,16,5,26,0.00
2013-6-13,63.0,60.3,57.0,60.0,57.0,53.0,93,89,80,29.83,29.47,8,3,21,0.60
2013-6-14,74.0,61.6,53.0,55.0,51.8,49.0,92,72,47,29.85,29.53,15,5,24,0.47
2013-6-15,80.0,68.5,56.0,56.0,51.0,44.0,93,59,30,30.00,29.88,11,2,15,0.00
2013-6-16,81.0,69.8,56.0,63.0,55.9,49.0,91,65,35,29.97,29.77,9,3,22,0.00
2013-6-17,86.0,75.3,64.0,65.0,61.5,57.0,93,66,39,29.91,29.83,10,2,16,0.00
2013-6-18,82.0,69.4,64.0,67.0,62.9,61.0,92,81,52,29.91,29.83,8,2,24,0.61
2013-6-19,76.0,65.9,58.0,60.0,51.6,42.0,91,64,32,30.12,29.88,10,4,16,0.04
2013-6-20,78.0,65.8,54.0,57.0,53.9,48.0,93,69,35,30.27,30.15,4,1,12,0.00
2013-6-22,84.0,77.9,68.0,59.0,56.2,52.0,64,48,34,30.27,30.12,8,4,18,0.00
2013-6-23,88.0,77.2,64.0,70.0,63.9,57.0,88,65,45,30.18,30.06,13,3,19,0.00
2013-6-24,93.0,81.8,72.0,71.0,66.3,58.0,91,63,31,30.06,29.94,8,2,17,0.00
2013-6-25,91.0,80.6,68.0,68.0,65.6,63.0,90,63,42,30.00,29.80,7,2,19,0.00
2013-6-26,85.0,79.9,74.0,69.0,65.9,64.0,83,63,53,29.85,29.80,6,2,19,0.00
2013-6-27,85.0,79.9,72.0,71.0,69.1,68.0,92,71,57,29.83,29.56,8,3,20,0.59
2013-6-28,86.0,78.1,73.0,71.0,66.8,62.0,90,70,45,29.56,29.47,11,4,21,0.00
2013-6-29,85.0,76.5,68.0,68.0,65.2,63.0,91,69,50,29.68,29.47,8,2,16,0.00
2013-6-30,83.0,74.9,68.0,73.0,69.6,66.0,93,84,65,29.91,29.68,8,2,17,0.00
2013-7-1,76.0,74.1,71.0,72.0,70.3,69.0,94,88,84,30.03,29.88,6,2,12,0.22
2013-7-2,84.0,77.9,73.0,73.0,70.7,69.0,91,79,65,30.18,30.03,9,3,20,0.04
2013-7-3,84.0,78.2,73.0,73.0,70.4,68.0,89,78,65,30.24,30.18,8,2,15,0.00
2013-7-4,90.0,82.0,75.0,73.0,70.5,68.0,91,70,50,30.24,30.15,14,4,19,0.00
2013-7-5,91.0,84.2,75.0,71.0,68.8,66.0,85,62,43,30.21,30.09,6,2,16,0.00
2013-7-6,92.0,83.1,77.0,73.0,70.2,67.0,82,66,46,30.15,30.03,8,3,17,0.00
2013-7-7,94.0,84.8,73.0,73.0,70.2,65.0,91,64,40,30.06,29.94,8,3,30,0.25
2013-7-8,88.0,76.1,69.0,69.0,66.6,63.0,91,75,45,30.03,29.97,9,2,13,0.00
2013-7-9,88.0,80.4,70.0,68.0,66.8,65.0,88,65,48,30.09,29.97,8,2,14,0.00
2013-7-10,86.0,79.3,75.0,73.0,65.6,-99.9,80,67,56,30.00,29.81,9,3,15,0.67
2013-7-11,85.0,79.4,74.0,73.0,68.4,63.0,89,70,49,29.93,29.80,7,2,12,0.01
2013-7-12,77.0,73.2,68.0,68.0,64.1,61.0,90,73,64,30.10,29.93,13,5,15,0.08
2013-7-13,80.0,72.8,66.0,73.0,68.6,63.0,93,87,77,30.28,30.11,6,2,14,0.03
2013-7-14,91.0,81.5,72.0,73.0,70.1,67.0,93,71,45,30.34,30.23,6,2,12,0.00
2013-7-15,94.0,83.6,77.0,74.0,70.5,65.0,86,66,40,30.24,30.14,8,2,16,0.00
2013-7-16,92.0,83.8,73.0,74.0,66.9,62.0,90,61,38,30.19,30.14,9,2,13,0.00
2013-7-17,94.0,84.6,73.0,72.0,68.6,63.0,91,62,35,30.20,30.06,5,1,9,0.00
2013-7-18,95.0,86.0,76.0,74.0,70.0,64.0,82,61,37,30.06,29.95,8,2,13,0.00
2013-7-19,95.0,88.1,78.0,75.0,72.0,68.0,85,61,43,29.96,29.78,11,3,19,0.00
2013-7-20,92.0,84.0,80.0,74.0,66.7,-99.9,71,59,43,29.81,29.72,11,3,23,0.00
2013-7-21,86.0,79.3,74.0,71.0,63.0,56.0,87,59,37,29.95,29.83,5,2,10,0.00
2013-7-22,81.0,75.7,71.0,73.0,70.2,65.0,92,83,69,29.95,29.81,6,1,13,0.36
2013-7-23,87.0,77.7,73.0,72.0,70.8,69.0,93,81,56,29.79,29.55,11,2,19,0.44
2013-7-24,80.0,75.1,69.0,71.0,63.7,52.0,94,70,49,29.92,29.60,15,4,20,0.00
2013-7-25,68.0,65.1,62.0,58.0,53.0,47.0,74,65,57,30.05,29.93,11,6,21,0.00
2013-7-26,83.0,72.9,65.0,61.0,58.5,57.0,78,62,43,30.02,29.98,7,3,17,0.00
2013-7-27,83.0,73.3,63.0,64.0,61.0,56.0,93,68,43,30.05,29.96,7,2,16,0.00
2013-7-28,79.0,71.4,65.0,69.0,64.7,62.0,93,81,63,29.97,29.93,6,2,16,0.20
2013-7-29,84.0,74.7,67.0,69.0,62.3,50.0,94,69,34,30.08,29.95,6,1,16,0.00
2013-7-30,79.0,69.7,58.0,60.0,55.7,52.0,90,63,42,30.16,30.09,8,2,18,0.00
2013-7-31,80.0,71.2,59.0,61.0,58.9,56.0,93,67,44,30.15,30.03,5,1,11,0.00
2013-8-1,75.0,68.4,66.0,67.0,63.9,61.0,93,86,61,30.03,29.82,6,1,12,0.25
2013-8-2,83.0,73.9,64.0,67.0,61.0,55.0,94,68,41,29.90,29.78,7,2,0,0.00
2013-8-3,78.0,70.1,66.0,65.0,61.3,57.0,87,75,57,29.90,29.85,8,2,0,0.00
2013-8-4,79.0,74.7,67.0,55.0,52.1,50.0,58,46,38,29.95,29.85,11,6,20,0.00
2013-8-5,77.0,67.0,56.0,57.0,49.1,40.0,83,55,33,30.05,29.96,12,3,13,0.00
2013-8-6,80.0,68.4,55.0,59.0,54.4,50.0,93,65,35,30.11,30.02,9,2,15,0.00
2013-8-7,78.0,71.9,65.0,66.0,62.4,59.0,88,72,60,30.13,30.06,10,3,18,0.00
2013-8-8,82.0,74.0,70.0,72.0,68.8,66.0,92,84,67,30.06,30.00,9,3,14,0.29
2013-8-9,86.0,76.7,73.0,74.0,71.4,69.0,93,85,61,30.00,29.80,9,3,19,0.38
2013-8-10,83.0,74.3,65.0,71.0,61.9,54.0,94,68,40,30.03,29.85,7,2,16,0.00
2013-8-11,80.0,70.0,58.0,61.0,56.4,50.0,92,65,40,30.12,30.02,4,1,11,0.00
2013-8-12,83.0,73.3,68.0,66.0,63.0,55.0,93,73,39,30.02,29.92,4,1,9,0.05
2013-8-13,78.0,70.1,66.0,68.0,63.4,-99.9,94,83,63,29.92,29.69,5,1,25,0.65
2013-8-14,73.0,66.3,59.0,64.0,51.9,45.0,93,61,45,30.01,29.75,13,5,23,0.00
2013-8-15,76.0,58.7,52.0,56.0,39.5,-99.9,93,62,33,30.13,30.03,7,2,16,0.00
2013-8-16,80.0,65.3,55.0,58.0,48.5,-99.9,94,63,33,30.18,30.11,4,1,9,0.00
2013-8-17,82.0,68.0,56.0,61.0,53.3,-99.9,94,65,33,30.27,30.19,6,1,9,0.00
2013-8-18,75.0,68.2,62.0,62.0,59.8,56.0,92,76,57,30.25,30.12,4,0,7,0.00
2013-8-19,80.0,66.2,60.0,62.0,53.1,-99.9,93,73,48,30.12,30.03,7,2,10,0.00
2013-8-20,67.0,66.0,65.0,62.0,62.0,62.0,90,88,86,30.05,30.04,0,0,3,0.00
2013-8-21,88.0,82.1,70.0,64.0,58.0,55.0,82,46,34,30.16,30.05,7,2,17,0.00
2013-8-22,76.0,71.6,67.0,70.0,67.5,64.0,92,87,80,30.06,29.87,4,1,13,0.11
2013-8-23,79.0,71.9,65.0,68.0,59.5,51.0,93,68,38,30.08,29.87,9,3,19,0.00
2013-8-24,79.0,68.3,61.0,57.0,49.4,-99.9,84,54,34,30.33,30.10,11,3,13,0.00
2013-8-25,82.0,69.0,55.0,59.0,53.1,49.0,94,62,32,30.39,30.22,5,2,13,0.00
2013-8-26,79.0,72.9,68.0,69.0,59.5,53.0,92,63,55,30.22,29.93,7,2,13,0.05
2013-8-27,84.0,74.3,71.0,69.0,66.8,64.0,92,79,56,29.89,29.81,10,3,21,0.00
2013-8-28,75.0,73.7,72.0,69.0,68.5,67.0,92,84,75,29.88,29.85,7,2,17,0.04
2013-8-29,80.0,72.4,68.0,69.0,66.2,63.0,93,81,62,30.01,29.88,7,2,11,0.00
2013-8-30,85.0,79.4,70.0,69.0,65.8,63.0,86,64,48,30.02,29.85,7,3,13,0.00
2013-8-31,86.0,77.6,73.0,72.0,66.6,-99.9,84,72,59,29.86,29.79,9,2,13,0.00
2013-9-1,84.0,76.9,71.0,73.0,70.7,69.0,94,82,65,29.86,29.79,5,1,13,1.42
2013-9-2,79.0,75.1,71.0,72.0,71.0,69.0,93,87,78,29.80,29.70,4,0,7,0.02
2013-9-3,80.0,72.8,66.0,70.0,61.2,53.0,93,70,42,29.88,29.70,7,3,16,0.00
2013-9-4,81.0,70.1,59.0,58.0,55.3,49.0,90,63,37,29.99,29.88,12,4,15,0.00
2013-9-5,75.0,67.6,57.0,60.0,51.3,39.0,89,60,28,30.13,29.92,11,3,19,0.00
2013-9-6,71.0,60.5,52.0,49.0,43.6,38.0,88,57,32,30.25,30.13,7,2,13,0.00
2013-9-7,79.0,62.9,47.0,52.0,44.8,-99.9,93,60,30,30.12,29.90,7,1,11,0.00
2013-9-8,80.0,70.5,61.0,61.0,52.5,41.0,76,55,30,30.06,29.81,9,3,23,0.00
2013-9-9,72.0,62.8,50.0,57.0,48.0,43.0,89,60,37,30.24,30.07,8,2,13,0.00
2013-9-10,87.0,75.9,67.0,71.0,66.0,58.0,85,72,58,30.14,30.05,7,2,15,0.01
2013-9-11,94.0,83.5,72.0,73.0,71.1,69.0,92,68,50,30.11,29.97,7,2,16,0.00
2013-9-12,86.0,76.1,68.0,71.0,68.6,65.0,95,79,60,29.98,29.70,12,3,28,2.63
2013-9-13,74.0,67.3,59.0,66.0,58.2,48.0,95,75,51,29.83,29.63,13,4,23,0.06
2013-9-14,64.0,57.2,50.0,47.0,43.6,-99.9,85,63,50,30.10,29.84,10,4,15,0.00
2013-9-15,73.0,55.8,44.0,52.0,45.4,41.0,94,73,32,30.20,30.07,6,1,9,0.00
2013-9-16,70.0,61.3,55.0,56.0,52.2,48.0,93,74,47,30.22,30.01,12,2,19,0.01
2013-9-17,64.0,54.8,48.0,48.0,39.7,36.0,92,59,35,30.42,30.24,15,4,23,0.00
2013-9-18,55.0,45.2,43.0,51.0,43.3,41.0,95,93,88,30.34,30.18,0,0,0,0.00
2013-9-19,78.0,60.6,45.0,53.0,48.0,44.0,94,69,30,30.18,30.06,4,1,8,0.00
2013-9-20,79.0,63.7,49.0,57.0,53.0,47.0,94,72,40,30.08,29.99,7,2,14,0.00
2013-9-21,76.0,65.0,52.0,66.0,57.1,-99.9,94,79,60,30.00,29.66,10,4,24,0.17
2013-9-22,68.0,62.2,55.0,66.0,49.9,41.0,94,67,45,29.90,29.64,12,4,23,0.33
2013-9-23,65.0,55.1,44.0,46.0,41.5,38.0,92,62,42,30.03,29.90,9,4,17,0.00
2013-9-24,72.0,55.2,41.0,48.0,43.1,39.0,93,68,34,30.04,29.86,7,2,13,0.00
2013-9-25,72.0,57.4,43.0,52.0,45.9,41.0,94,70,34,29.95,29.88,5,1,8,0.01
2013-9-26,70.0,59.0,49.0,55.0,52.2,47.0,95,79,53,30.09,29.93,6,1,10,0.00
2013-9-27,66.0,58.8,51.0,53.0,51.0,49.0,93,77,60,30.25,30.09,8,2,11,0.00
2013-9-28,72.0,60.2,53.0,53.0,49.1,-99.9,92,72,44,30.32,30.24,7,2,12,0.00
2013-9-29,72.0,59.5,49.0,56.0,51.7,47.0,95,78,51,30.22,30.08,5,0,11,0.00
2013-9-30,75.0,58.8,47.0,54.0,50.2,46.0,95,76,39,30.08,29.97,5,0,8,0.00
2013-10-1,66.0,63.5,61.0,59.0,58.8,58.0,89,85,79,29.93,29.92,0,0,0,0.00
2013-10-2,83.0,67.2,53.0,62.0,57.2,52.0,94,74,43,29.99,29.91,7,2,16,0.00
2013-10-3,77.0,65.0,53.0,60.0,55.5,49.0,95,75,38,30.12,30.00,5,0,8,0.00
2013-10-4,85.0,70.0,58.0,66.0,61.5,57.0,94,77,44,30.05,29.96,7,1,15,0.00
2013-10-5,76.0,67.4,64.0,63.0,61.6,60.0,89,82,65,30.09,30.01,4,1,8,0.00
2013-10-6,67.0,65.4,64.0,64.0,62.8,62.0,94,91,86,30.09,30.03,6,2,13,0.00
2013-10-7,75.0,66.5,59.0,69.0,62.7,53.0,94,88,76,30.02,29.74,13,3,32,0.40
2013-10-8,66.0,56.0,47.0,51.0,45.9,42.0,94,71,42,30.32,29.97,9,2,14,0.00
2013-10-9,58.0,53.1,51.0,49.0,43.6,40.0,80,70,57,30.40,30.29,13,4,15,0.00
2013-10-10,61.0,56.6,52.0,52.0,48.9,45.0,80,75,70,30.29,30.09,8,5,13,0.00
2013-10-11,67.0,63.1,58.0,58.0,55.0,51.0,78,75,71,30.09,30.02,10,4,17,0.00
2013-10-12,72.0,62.8,58.0,56.0,45.7,-99.9,76,57,24,30.28,30.07,10,4,21,0.00
2013-10-13,63.0,57.1,52.0,51.0,48.7,47.0,90,74,61,30.39,30.28,15,5,18,0.00
2013-10-14,66.0,55.6,49.0,51.0,47.8,44.0,94,77,46,30.36,30.24,4,1,8,0.00
2013-10-15,71.0,56.5,46.0,53.0,49.2,44.0,94,79,46,30.25,30.12,7,1,10,0.00
2013-10-16,66.0,58.0,50.0,58.0,52.7,48.0,93,83,70,30.10,29.93,4,1,8,0.00
2013-10-17,74.0,65.5,61.0,61.0,58.6,57.0,93,80,55,29.90,29.70,6,2,14,0.00
2013-10-18,67.0,61.3,50.0,61.0,45.6,40.0,85,58,36,29.96,29.66,12,5,19,0.00
2013-10-19,63.0,52.4,41.0,51.0,41.9,-99.9,93,72,43,29.97,29.74,6,1,13,0.00
2013-10-20,63.0,53.8,44.0,52.0,39.5,31.0,86,62,31,30.04,29.73,9,3,17,0.00
2013-10-21,67.0,52.1,37.0,44.0,38.0,31.0,94,64,26,30.14,29.98,10,2,15,0.00
2013-10-22,64.0,53.2,43.0,49.0,44.5,41.0,94,74,52,29.96,29.74,6,2,13,0.00
2013-10-23,54.0,45.9,39.0,42.0,36.9,33.0,94,73,45,29.80,29.61,4,2,18,0.00
2013-10-24,53.0,45.3,39.0,35.0,29.5,24.0,83,56,33,29.98,29.73,14,5,22,0.00
2013-10-25,52.0,42.4,33.0,33.0,29.6,25.0,87,63,34,30.20,29.99,11,2,21,0.00
2013-10-26,55.0,41.9,30.0,35.0,26.6,-99.9,95,63,31,30.20,29.89,9,2,26,0.00
2013-10-27,57.0,48.6,38.0,33.0,30.4,27.0,80,52,33,30.09,29.84,11,3,18,0.00
2013-10-28,62.0,45.0,31.0,38.0,30.2,-99.9,94,65,30,30.29,30.10,6,1,20,0.00
2013-10-29,54.0,45.2,37.0,37.0,31.0,27.0,89,59,38,30.41,30.31,7,2,11,0.00
2013-10-30,56.0,46.3,36.0,46.0,40.2,34.0,92,80,62,30.34,30.17,2,0,4,0.00
2013-10-31,65.0,53.5,41.0,57.0,49.5,39.0,94,87,67,30.21,29.82,8,1,17,0.00
2013-11-1,71.0,64.3,54.0,61.0,55.4,50.0,90,74,48,29.78,29.54,9,5,37,0.13
2013-11-2,67.0,55.6,47.0,50.0,45.4,38.0,94,73,41,29.70,29.61,3,1,21,0.00
2013-11-3,49.0,43.1,36.0,40.0,29.4,20.0,88,59,48,30.41,29.82,13,5,21,0.00
2013-11-4,46.0,37.4,33.0,29.0,17.8,12.0,82,47,25,30.64,30.44,9,3,20,0.00
2013-11-5,54.0,44.4,33.0,41.0,34.1,27.0,86,68,51,30.64,30.48,5,1,12,0.00
2013-11-6,61.0,50.6,38.0,49.0,42.3,36.0,94,76,52,30.47,30.07,12,2,14,0.00
2013-11-7,62.0,52.2,37.0,56.0,45.6,29.0,92,79,54,30.05,29.75,12,4,23,0.03
2013-11-8,48.0,41.8,35.0,33.0,27.0,21.0,86,58,37,30.18,29.91,12,4,24,0.00
2013-11-9,50.0,41.9,31.0,30.0,23.3,-99.9,80,51,32,30.27,30.00,11,4,14,0.00
2013-11-10,60.0,49.9,44.0,37.0,31.1,27.0,65,49,30,30.01,29.79,11,7,29,0.00
2013-11-11,52.0,47.8,41.0,30.0,25.6,23.0,49,42,35,30.18,29.94,16,6,23,0.00
2013-11-12,50.0,38.2,31.0,32.0,21.6,14.0,80,52,41,30.26,29.91,15,7,26,0.01
2013-11-13,39.0,31.4,27.0,18.0,13.5,9.0,65,49,30,30.35,30.26,17,5,22,0.00
2013-11-14,53.0,39.5,26.0,19.0,14.9,11.0,72,41,20,30.24,30.14,15,3,18,0.00
2013-11-15,57.0,41.1,28.0,29.0,22.7,17.0,84,53,22,30.22,30.13,7,1,10,0.00
2013-11-16,60.0,45.8,34.0,44.0,35.9,-99.9,93,73,45,30.31,30.21,6,1,9,0.01
2013-11-17,59.0,54.1,42.0,57.0,51.4,40.0,94,91,85,30.26,29.80,4,1,10,0.00
2013-11-18,65.0,59.4,51.0,59.0,39.1,25.0,92,53,25,29.77,29.57,17,6,27,0.11
2013-11-19,49.0,42.9,36.0,28.0,22.8,20.0,52,45,36,30.31,29.76,24,11,30,0.00
2013-11-20,43.0,34.9,29.0,20.0,15.2,9.0,66,46,24,30.58,30.33,13,5,22,0.00
2013-11-21,50.0,38.8,24.0,36.0,27.7,17.0,86,66,46,30.60,30.39,5,1,11,0.00
2013-11-22,57.0,50.1,44.0,47.0,43.8,37.0,92,79,68,30.37,29.89,10,2,13,0.04
2013-11-23,53.0,41.0,31.0,46.0,21.0,-99.9,79,48,29,30.03,29.88,17,9,30,0.00
2013-11-24,29.0,25.5,22.0,7.0,2.3,-4.0,47,38,24,30.34,29.99,33,11,35,0.00
2013-11-25,36.0,27.9,18.0,11.0,8.3,5.0,67,45,31,30.45,30.31,10,4,19,0.00
2013-11-26,43.0,35.4,32.0,42.0,22.2,12.0,94,62,37,30.31,29.86,5,1,16,0.47
2013-11-27,61.0,45.4,35.0,58.0,40.3,19.0,94,82,53,29.77,29.33,17,7,29,1.31
2013-11-28,34.0,30.3,25.0,17.0,11.8,6.0,67,47,31,30.44,29.72,23,7,32,0.00
2013-11-29,36.0,31.1,26.0,21.0,16.2,12.0,74,55,42,30.71,30.45,11,3,15,0.00
2013-11-30,35.0,29.1,22.0,25.0,13.0,-99.9,67,54,38,30.74,30.39,8,2,12,0.00
2013-12-1,49.0,38.8,31.0,31.0,28.2,24.0,84,67,44,30.36,30.00,4,1,8,0.00
2013-12-2,45.0,37.7,32.0,35.0,32.9,30.0,94,83,68,29.99,29.87,4,1,5,0.00
2013-12-3,54.0,37.7,28.0,36.0,31.3,27.0,96,81,45,29.98,29.85,2,0,7,0.00
2013-12-4,50.0,39.8,30.0,38.0,33.4,28.0,95,79,57,30.11,29.99,4,0,6,0.00
2013-12-5,52.0,48.3,45.0,51.0,46.2,39.0,95,92,78,30.10,29.93,3,0,4,0.02
2013-12-6,55.0,46.0,36.0,54.0,43.7,33.0,96,92,88,30.12,29.85,7,3,18,0.81
2013-12-7,39.0,35.1,31.0,33.0,23.3,-99.9,93,67,45,30.50,30.09,14,5,21,0.04
2013-12-8,31.0,29.0,26.0,25.0,16.9,12.0,85,62,50,30.57,30.39,7,3,12,0.00
2013-12-9,37.0,32.9,28.0,35.0,30.9,26.0,94,93,91,30.37,29.95,10,3,13,0.05
2013-12-10,33.0,31.2,27.0,32.0,27.9,18.0,95,88,70,30.06,29.85,9,2,14,0.15
2013-12-11,33.0,28.2,24.0,16.0,13.5,11.0,66,55,40,30.29,30.10,10,5,19,0.00
2013-12-12,28.0,24.0,21.0,13.0,5.0,1.0,63,46,35,30.32,30.15,12,5,21,0.00
2013-12-13,34.0,26.5,19.0,18.0,9.1,1.0,70,49,40,30.29,30.10,12,5,24,0.00
2013-12-14,28.0,22.2,19.0,22.0,14.6,-99.9,94,80,63,30.48,29.88,11,5,19,0.14
2013-12-15,37.0,32.5,28.0,30.0,26.9,20.0,96,81,58,29.80,29.51,10,3,19,0.31
2013-12-16,32.0,26.4,16.0,20.0,9.5,6.0,77,51,39,30.20,29.80,13,4,23,0.00
2013-12-17,25.0,21.5,16.0,22.0,16.9,9.0,92,87,76,30.20,29.93,6,3,13,0.05
2013-12-18,36.0,27.4,17.0,20.0,16.9,13.0,91,68,46,30.13,29.91,13,3,20,0.00
2013-12-19,45.0,33.3,20.0,28.0,21.5,15.0,88,65,39,30.15,30.00,6,2,16,0.00
2013-12-20,49.0,39.0,30.0,33.0,29.5,27.0,91,70,47,30.07,29.95,5,1,11,0.00
2013-12-21,60.0,48.3,37.0,49.0,39.4,-99.9,92,75,57,29.96,29.88,6,2,13,0.00
2013-12-22,69.0,62.4,53.0,60.0,55.3,49.0,91,78,66,29.94,29.78,14,6,22,0.00
2013-12-23,59.0,52.2,41.0,56.0,48.7,32.0,94,88,67,30.12,29.91,11,3,23,0.50
2013-12-24,40.0,34.4,26.0,29.0,20.2,8.0,91,57,41,30.31,30.07,15,8,27,0.00
2013-12-25,28.0,23.2,18.0,11.0,5.3,3.0,56,48,38,30.50,30.33,10,4,29,0.00
2013-12-26,35.0,28.5,24.0,24.0,20.1,15.0,86,73,61,30.41,30.16,6,1,13,0.00
2013-12-27,39.0,31.6,24.0,22.0,19.5,15.0,84,64,41,30.33,30.24,7,2,15,0.00
2013-12-28,54.0,37.0,25.0,25.0,19.7,-99.9,88,58,30,30.26,30.05,12,2,20,0.00
2013-12-29,45.0,39.0,33.0,39.0,35.0,29.0,95,86,55,29.99,29.42,8,3,19,0.91
2013-12-30,41.0,33.3,22.0,36.0,23.1,7.0,94,68,46,30.18,29.66,15,6,24,0.00
2013-12-31,31.0,24.9,19.0,21.0,10.1,6.0,74,55,45,30.24,30.04,11,3,21,0.00
2014-1-1,32.0,26.8,20.0,18.0,11.3,4.0,65,54,45,30.39,30.25,9,3,14,0.00
2014-1-2,30.0,22.7,13.0,21.0,15.8,8.0,90,79,57,30.23,29.69,18,7,22,0.07